LGKO/KGS METAR and TAF weather

Enter ICAO airport designator
Station Type Date Time Source
LGKO METAR 2019/05/26 01:20 UTC NOAA

LGKO 260120Z 32006KT 9999 FEW025 18/16 Q1015


Station Type Date Time Source
LGKO Decoded METAR 2019/05/26 01:20 UTC NOAA

Kos Airport , Greece (LGKO) 36-47N 027-04E
May 25, 2019 - 09:20 PM EDT / 2019.05.26 0120 UTC
Wind: from the NW (320 degrees) at 7 MPH (6 KT):0
Visibility: greater than 7 mile(s):0
Sky conditions: mostly clear
Temperature: 64 F (18 C)
Dew Point: 60 F (16 C)
Relative Humidity: 88%
Pressure (altimeter): 29.97 in. Hg (1015 hPa)
ob: LGKO 260120Z 32006KT 9999 FEW025 18/16 Q1015
cycle: 1

Station Type Date Time Source
LGKO TAF 2019/05/25 18:12 UTC NOAA

TAF LGKO 251700Z 2518/2618 30010KT 9999 FEW025

Example: see airport list